Lemberg, Canada
Current Conditions -  °F | °C
As of 10:00 PM on Wednesday 26 Nov 2014 (Local Time) from CYQV Reporting Station
Clear Clear  
Wind Chill: -30°   Ceiling: Unl
Heat Index: -13°   Visibility: 9mi
Dew Point: -17°   Wind: 8mph
Humidity: 84%   Direction: 200°SSW
Pressure: 30.39"   Gusts: NA
Location:  50.73°N, 103.2°W
Report Text: CYQV 270400Z AUTO 20007KT 9SM CLR M25/M27 A3039 RMK SLP354
Loading
Personal Weather Stations






























Interactive Weather Map New forecast layout! Learn more

10-Day Weather Forecast

Advertisements
Track Severe Weather on mobile